Time;durP1;ratioP1;P1;durP2;ratioP2;P2;SDS_P1;SDS_P2;PMS_P1;PMS_P2;Temp;Humidity;BMP_temperature;BMP_pressure;BME280_temperature;BME280_humidity;BME280_pressure;Samples;Min_cycle;Max_cycle;Signal;HPM_P1;HPM_P2
2022/03/18 00:00:32;;;;;;;3.93;1.30;;;8.80;99.90;;;;;;6178565;23;20185;-90
2022/03/18 00:03:05;;;;;;;4.67;1.10;;;8.90;99.90;;;;;;6181400;23;20165;-90
2022/03/18 00:05:38;;;;;;;3.10;1.33;;;9.00;99.90;;;;;;6180791;23;20174;-91
2022/03/18 00:08:12;;;;;;;3.00;1.30;;;9.00;99.90;;;;;;6180847;23;20170;-91
2022/03/18 00:10:44;;;;;;;5.80;1.83;;;9.00;99.90;;;;;;6180984;23;20181;-90
2022/03/18 00:13:16;;;;;;;4.13;1.53;;;9.00;99.90;;;;;;6183791;23;20189;-90
2022/03/18 00:15:49;;;;;;;4.17;1.47;;;9.00;99.90;;;;;;6183867;23;20198;-89
2022/03/18 00:18:21;;;;;;;3.57;1.30;;;9.00;99.90;;;;;;6182881;23;20182;-90
2022/03/18 00:23:30;;;;;;;3.73;1.43;;;8.70;99.90;;;;;;6242498;23;20247;-90
2022/03/18 00:26:02;;;;;;;13.50;1.97;;;8.80;99.90;;;;;;6243633;23;20167;-87
2022/03/18 00:28:33;;;;;;;17.53;2.90;;;8.80;99.90;;;;;;6165186;23;20201;-90
2022/03/18 00:31:04;;;;;;;3.47;1.20;;;8.80;99.90;;;;;;6154267;23;20198;-91
2022/03/18 00:33:35;;;;;;;4.17;1.20;;;8.70;99.90;;;;;;6151495;23;20194;-91
2022/03/18 00:36:08;;;;;;;3.47;1.40;;;8.70;99.90;;;;;;6153468;23;20170;-90
2022/03/18 00:38:41;;;;;;;5.97;1.40;;;8.80;99.90;;;;;;6128034;23;20177;-91
2022/03/18 00:41:13;;;;;;;2.07;1.10;;;8.80;99.90;;;;;;6153445;23;20170;-92
2022/03/18 00:43:44;;;;;;;5.20;1.30;;;8.80;99.90;;;;;;6153166;23;20158;-92
2022/03/18 00:46:15;;;;;;;3.10;1.10;;;8.90;99.90;;;;;;6149298;23;20169;-92
2022/03/18 00:54:23;;;;;;;4.53;1.40;;;8.90;99.90;;;;;;6152322;23;20202;-92
2022/03/18 00:56:54;;;;;;;4.17;1.40;;;8.90;99.90;;;;;;6152860;23;20182;-92
2022/03/18 00:59:25;;;;;;;4.30;1.37;;;8.90;99.90;;;;;;6149543;23;20173;-93
2022/03/18 01:01:57;;;;;;;3.90;1.30;;;8.90;99.90;;;;;;6148223;23;20197;-92
2022/03/18 01:04:30;;;;;;;7.80;2.20;;;8.90;99.90;;;;;;6147735;23;20167;-92
2022/03/18 01:07:01;;;;;;;2.67;1.43;;;8.90;99.90;;;;;;6147741;23;20214;-93
2022/03/18 01:09:35;;;;;;;3.00;1.47;;;8.80;99.90;;;;;;6144447;23;20257;-93
2022/03/18 01:12:07;;;;;;;4.03;1.40;;;8.80;99.90;;;;;;6140782;23;20178;-92
2022/03/18 01:14:38;;;;;;;5.77;1.63;;;8.90;99.90;;;;;;6145517;23;20250;-92
2022/03/18 01:17:10;;;;;;;6.93;1.80;;;8.80;99.90;;;;;;6143434;23;20237;-92
2022/03/18 01:19:41;;;;;;;4.40;2.00;;;8.80;99.90;;;;;;6136903;23;20178;-92
2022/03/18 01:22:12;;;;;;;3.87;1.70;;;8.80;99.90;;;;;;6137347;23;20182;-92
2022/03/18 01:24:46;;;;;;;6.50;1.93;;;8.80;99.90;;;;;;6140336;23;20193;-93
2022/03/18 01:27:17;;;;;;;4.33;1.87;;;8.80;99.90;;;;;;6139968;23;20223;-93
2022/03/18 01:29:49;;;;;;;3.47;1.47;;;8.80;99.90;;;;;;6144662;23;20171;-92
2022/03/18 01:32:20;;;;;;;5.43;1.73;;;8.80;99.90;;;;;;6117212;23;20475;-91
2022/03/18 01:34:54;;;;;;;3.07;1.60;;;8.90;99.90;;;;;;6143400;23;20194;-93
2022/03/18 01:37:26;;;;;;;4.50;1.77;;;8.80;99.90;;;;;;6149986;23;20174;-92
2022/03/18 01:39:59;;;;;;;6.23;1.60;;;8.80;99.90;;;;;;6144518;23;20158;-92
2022/03/18 01:42:30;;;;;;;4.00;1.73;;;8.80;99.90;;;;;;6151386;23;20162;-92
2022/03/18 01:45:02;;;;;;;3.27;1.60;;;8.70;99.90;;;;;;6151204;23;20177;-93
2022/03/18 01:47:34;;;;;;;4.93;1.57;;;8.70;99.90;;;;;;6143359;23;20228;-92
2022/03/18 01:50:05;;;;;;;2.17;1.30;;;8.70;99.90;;;;;;6135683;23;20197;-91
2022/03/18 01:52:36;;;;;;;3.03;1.50;;;8.80;99.90;;;;;;6134998;23;20175;-92
2022/03/18 01:55:10;;;;;;;3.33;1.23;;;8.80;99.90;;;;;;6133065;23;20202;-92
2022/03/18 01:57:43;;;;;;;9.30;2.13;;;8.80;99.90;;;;;;6132627;23;20179;-92
2022/03/18 02:00:15;;;;;;;4.93;1.87;;;8.80;99.90;;;;;;6133062;23;20190;-92
2022/03/18 02:02:46;;;;;;;4.57;1.97;;;8.80;99.90;;;;;;6134579;23;20537;-92
2022/03/18 02:05:18;;;;;;;4.77;1.60;;;8.70;99.90;;;;;;6149066;23;20230;-92
2022/03/18 02:07:49;;;;;;;5.80;2.10;;;8.70;99.90;;;;;;6149128;23;20178;-93
2022/03/18 02:10:23;;;;;;;6.83;2.07;;;8.80;99.90;;;;;;6147264;23;20189;-93
2022/03/18 02:12:55;;;;;;;4.27;2.10;;;8.80;99.90;;;;;;6143919;23;20620;-92
2022/03/18 02:15:27;;;;;;;5.70;2.47;;;8.80;99.90;;;;;;6145022;23;20191;-91
2022/03/18 02:18:00;;;;;;;5.23;2.00;;;8.70;99.90;;;;;;6146919;23;20167;-92
2022/03/18 02:20:34;;;;;;;4.57;1.87;;;8.70;99.90;;;;;;6119255;23;20178;-92
2022/03/18 02:23:09;;;;;;;5.93;2.10;;;8.70;99.90;;;;;;6142186;23;20181;-92
2022/03/18 02:25:40;;;;;;;4.53;1.80;;;8.60;99.90;;;;;;6143830;23;20178;-92
2022/03/18 02:28:12;;;;;;;7.60;1.53;;;8.70;99.90;;;;;;6142558;23;20181;-92
2022/03/18 02:30:46;;;;;;;7.00;2.00;;;8.70;99.90;;;;;;6145612;23;20182;-92
2022/03/18 02:33:19;;;;;;;3.57;1.40;;;8.70;99.90;;;;;;6116565;23;20257;-93
2022/03/18 02:35:55;;;;;;;4.33;1.70;;;8.70;99.90;;;;;;6145718;23;20262;-92
2022/03/18 02:38:28;;;;;;;3.53;1.57;;;8.70;99.90;;;;;;6143752;23;20178;-92
2022/03/18 02:40:59;;;;;;;4.63;1.43;;;8.70;99.90;;;;;;6141937;23;20231;-93
2022/03/18 02:43:32;;;;;;;2.63;1.40;;;8.70;99.90;;;;;;6139205;23;20178;-92
2022/03/18 02:46:03;;;;;;;4.70;1.53;;;8.70;99.90;;;;;;6139937;23;20224;-93
2022/03/18 02:48:40;;;;;;;2.83;1.10;;;8.70;99.90;;;;;;6141170;23;20198;-92
2022/03/18 02:51:13;;;;;;;3.33;1.50;;;8.70;99.90;;;;;;6117076;23;20188;-93
2022/03/18 02:53:45;;;;;;;2.90;1.23;;;8.70;99.90;;;;;;6139023;23;20194;-91
2022/03/18 02:56:17;;;;;;;4.13;1.73;;;8.70;99.90;;;;;;6140884;23;20175;-92
2022/03/18 02:58:49;;;;;;;4.57;1.40;;;8.70;99.90;;;;;;6146100;23;20184;-92
2022/03/18 03:01:20;;;;;;;2.00;1.40;;;8.70;99.90;;;;;;6100174;23;20171;-92
2022/03/18 03:03:52;;;;;;;5.60;1.33;;;8.70;99.90;;;;;;6146527;23;20191;-92
2022/03/18 03:09:16;;;;;;;2.73;1.10;;;8.70;99.90;;;;;;6147053;23;20170;-92
2022/03/18 03:11:49;;;;;;;3.17;1.20;;;8.80;99.90;;;;;;6144038;23;20209;-84
2022/03/18 03:14:21;;;;;;;4.47;1.30;;;8.70;99.90;;;;;;6122705;23;20202;-92
2022/03/18 03:17:01;;;;;;;3.17;1.50;;;8.70;99.90;;;;;;6153669;23;20185;-90
2022/03/18 03:30:15;;;;;;;3.50;1.30;;;8.70;99.90;;;;;;6124031;23;20160;-92
2022/03/18 03:32:47;;;;;;;1.97;1.03;;;8.60;99.90;;;;;;6122960;23;20178;-92
2022/03/18 03:35:19;;;;;;;4.63;1.60;;;8.60;99.90;;;;;;6122921;23;20191;-91
2022/03/18 03:37:51;;;;;;;4.30;1.47;;;8.60;99.90;;;;;;6122354;23;20176;-92
2022/03/18 03:40:24;;;;;;;2.40;1.30;;;8.60;99.90;;;;;;6122257;23;20304;-92
2022/03/18 03:43:05;;;;;;;2.20;1.10;;;8.60;99.90;;;;;;6122289;23;20186;-92
2022/03/18 04:05:01;;;;;;;4.50;1.80;;;8.50;99.90;;;;;;6151571;23;20223;-92
2022/03/18 04:07:34;;;;;;;3.33;1.50;;;8.50;99.90;;;;;;6146395;23;20214;-92
2022/03/18 04:10:06;;;;;;;3.47;1.50;;;8.50;99.90;;;;;;6147965;23;20174;-92
2022/03/18 04:12:51;;;;;;;4.40;1.83;;;8.50;99.90;;;;;;6120555;23;20186;-92
2022/03/18 04:15:23;;;;;;;1.87;1.63;;;8.50;99.90;;;;;;6147079;23;20291;-92
2022/03/18 04:17:55;;;;;;;3.10;1.93;;;8.50;99.90;;;;;;6148531;23;20167;-92
2022/03/18 04:20:30;;;;;;;2.77;1.60;;;8.50;99.90;;;;;;6122215;23;20166;-92
2022/03/18 04:23:01;;;;;;;4.77;1.50;;;8.50;99.90;;;;;;6146287;23;20173;-92
2022/03/18 04:25:32;;;;;;;3.67;1.53;;;8.50;99.90;;;;;;6145851;23;20178;-92
2022/03/18 04:28:04;;;;;;;3.63;1.77;;;8.50;99.90;;;;;;6150458;23;20178;-91
2022/03/18 04:35:54;;;;;;;3.10;1.47;;;8.50;99.90;;;;;;6195929;23;20227;-90
2022/03/18 04:38:26;;;;;;;4.20;1.50;;;8.50;99.90;;;;;;6161071;23;20213;-91
2022/03/18 04:40:56;;;;;;;5.73;1.77;;;8.50;99.90;;;;;;6153405;23;20158;-91
2022/03/18 04:43:27;;;;;;;4.23;1.63;;;8.60;99.90;;;;;;6152786;23;20194;-91
2022/03/18 04:45:59;;;;;;;2.03;1.40;;;8.60;99.90;;;;;;6152892;23;20209;-92
2022/03/18 04:48:30;;;;;;;1.63;1.17;;;8.50;99.90;;;;;;6147079;23;20174;-90
2022/03/18 04:51:04;;;;;;;3.20;1.43;;;8.50;99.90;;;;;;6119952;23;20178;-92
2022/03/18 04:53:36;;;;;;;3.70;1.57;;;8.50;99.90;;;;;;6149214;23;20168;-92
2022/03/18 04:57:15;;;;;;;5.77;1.90;;;8.50;99.90;;;;;;6148832;23;20229;-92
2022/03/18 04:59:02;;;;;;;3.03;1.50;;;8.50;99.90;;;;;;6152017;23;20299;-90
2022/03/18 05:04:15;;;;;;;5.20;1.80;;;8.40;99.90;;;;;;6152580;23;20213;-91
2022/03/18 05:06:49;;;;;;;5.60;2.37;;;8.30;99.90;;;;;;6147240;23;20170;-89
2022/03/18 05:09:23;;;;;;;4.40;1.53;;;8.30;99.90;;;;;;6120044;23;20202;-92
2022/03/18 05:11:56;;;;;;;4.30;1.80;;;8.20;99.90;;;;;;6146409;23;20177;-91
2022/03/18 05:14:28;;;;;;;6.17;1.70;;;8.30;99.90;;;;;;6142860;23;20492;-93
2022/03/18 05:16:59;;;;;;;5.10;1.60;;;8.30;99.90;;;;;;6196061;23;20261;-92
2022/03/18 05:19:30;;;;;;;2.37;1.50;;;8.30;99.90;;;;;;6190914;23;20176;-92
2022/03/18 05:22:03;;;;;;;2.23;1.60;;;8.30;99.90;;;;;;6191571;23;20177;-91
2022/03/18 05:24:34;;;;;;;3.83;1.60;;;8.30;99.90;;;;;;6190452;23;20631;-91
2022/03/18 05:27:06;;;;;;;5.80;1.77;;;8.30;99.90;;;;;;6189841;23;20193;-92
2022/03/18 05:29:37;;;;;;;6.47;1.67;;;8.20;99.90;;;;;;6165080;23;20180;-92
2022/03/18 05:32:09;;;;;;;2.87;2.07;;;8.20;99.90;;;;;;6193106;23;20208;-92
2022/03/18 05:34:40;;;;;;;5.80;2.10;;;8.20;99.90;;;;;;6191801;23;20181;-92
2022/03/18 05:37:13;;;;;;;8.03;2.33;;;8.20;99.90;;;;;;6204128;23;20176;-91
2022/03/18 05:39:44;;;;;;;4.23;2.20;;;8.10;99.90;;;;;;6208416;23;20187;-92
2022/03/18 05:42:14;;;;;;;5.83;1.97;;;8.10;99.90;;;;;;6207753;23;20169;-92
2022/03/18 05:47:21;;;;;;;3.27;2.30;;;8.00;99.90;;;;;;6191818;23;20223;-92
2022/03/18 05:49:52;;;;;;;3.33;2.10;;;8.00;99.90;;;;;;6190430;23;20169;-93
2022/03/18 05:52:26;;;;;;;5.00;2.00;;;8.00;99.90;;;;;;6189808;23;20620;-93
2022/03/18 05:54:57;;;;;;;6.17;2.07;;;8.00;99.90;;;;;;6200271;23;20169;-93
2022/03/18 05:57:27;;;;;;;4.37;2.20;;;8.00;99.90;;;;;;6202530;23;20235;-91
2022/03/18 06:00:04;;;;;;;3.87;1.97;;;8.00;99.90;;;;;;6197042;23;20172;-93
2022/03/18 06:02:37;;;;;;;4.83;2.10;;;7.90;99.90;;;;;;6191652;23;20504;-92
2022/03/18 06:05:10;;;;;;;5.60;2.07;;;7.90;99.90;;;;;;6192880;23;20173;-93
2022/03/18 06:07:43;;;;;;;4.50;2.00;;;7.90;99.90;;;;;;6192736;23;20176;-92
2022/03/18 06:13:02;;;;;;;4.07;2.10;;;7.90;99.90;;;;;;6197686;23;20157;-93
2022/03/18 06:15:34;;;;;;;6.03;2.70;;;7.90;99.90;;;;;;6209873;23;20188;-92
2022/03/18 06:18:05;;;;;;;7.23;3.27;;;7.90;99.90;;;;;;6209367;23;20207;-92
2022/03/18 06:20:36;;;;;;;7.03;2.93;;;7.90;99.90;;;;;;6200065;23;20177;-93
2022/03/18 06:23:09;;;;;;;6.57;3.20;;;7.90;99.90;;;;;;6192060;23;20181;-92
2022/03/18 06:25:41;;;;;;;6.13;3.03;;;7.90;99.90;;;;;;6190999;23;20256;-93
2022/03/18 06:28:12;;;;;;;4.07;3.03;;;7.90;99.90;;;;;;6189527;23;20177;-93
2022/03/18 06:30:43;;;;;;;8.57;3.67;;;7.90;99.90;;;;;;6195031;23;20241;-93
2022/03/18 06:33:13;;;;;;;7.77;3.90;;;7.90;99.90;;;;;;6189376;23;20193;-93
2022/03/18 06:35:46;;;;;;;6.50;3.50;;;7.90;99.90;;;;;;6192842;23;20249;-93
2022/03/18 06:38:20;;;;;;;8.27;3.30;;;7.90;99.90;;;;;;6187623;23;20228;-93
2022/03/18 06:40:52;;;;;;;6.53;2.97;;;7.90;99.90;;;;;;6187419;23;20263;-93
2022/03/18 06:43:23;;;;;;;5.57;3.13;;;7.90;99.90;;;;;;6187829;23;20231;-93
2022/03/18 06:45:54;;;;;;;4.20;3.10;;;7.90;99.90;;;;;;6202582;23;20191;-93
2022/03/18 06:48:25;;;;;;;7.27;3.30;;;7.90;99.90;;;;;;6192225;23;20169;-93
2022/03/18 06:50:56;;;;;;;6.53;3.07;;;7.90;99.90;;;;;;6191451;23;20244;-93
2022/03/18 06:53:33;;;;;;;6.67;3.17;;;7.90;99.90;;;;;;6201856;23;20180;-93
2022/03/18 06:56:07;;;;;;;9.23;3.57;;;7.80;99.90;;;;;;6197918;23;20188;-92
2022/03/18 06:58:38;;;;;;;6.17;2.90;;;7.80;99.90;;;;;;6191573;23;20208;-92
2022/03/18 07:01:09;;;;;;;6.87;2.83;;;7.80;99.90;;;;;;6190935;23;20204;-91
2022/03/18 07:03:40;;;;;;;6.60;3.00;;;7.70;99.90;;;;;;6190522;23;20647;-92
2022/03/18 07:06:13;;;;;;;5.60;2.73;;;7.70;99.90;;;;;;6191516;23;20260;-92
2022/03/18 07:08:47;;;;;;;7.17;3.03;;;7.80;99.90;;;;;;6195252;23;20177;-92
2022/03/18 07:11:17;;;;;;;7.00;3.40;;;7.80;99.90;;;;;;6191268;23;20626;-94
2022/03/18 07:13:48;;;;;;;4.90;3.20;;;7.80;99.90;;;;;;6190511;23;20207;-92
2022/03/18 07:19:06;;;;;;;6.33;3.00;;;7.80;99.90;;;;;;6189278;23;20227;-92
2022/03/18 07:21:38;;;;;;;5.70;2.97;;;7.80;99.90;;;;;;6190528;23;20189;-92
2022/03/18 07:24:11;;;;;;;6.10;2.77;;;7.80;99.90;;;;;;6190901;23;20200;-92
2022/03/18 07:26:42;;;;;;;4.97;2.90;;;7.80;99.90;;;;;;6190281;23;20259;-92
2022/03/18 07:29:14;;;;;;;6.43;2.97;;;7.80;99.90;;;;;;6188500;23;20177;-92
2022/03/18 07:31:45;;;;;;;3.43;2.63;;;7.80;99.90;;;;;;6189708;23;20184;-91
2022/03/18 07:34:17;;;;;;;4.87;2.97;;;7.80;99.90;;;;;;6190407;23;20173;-92
2022/03/18 07:36:47;;;;;;;3.20;2.63;;;7.80;99.90;;;;;;6189529;23;20197;-92
2022/03/18 07:39:21;;;;;;;7.80;3.47;;;7.80;99.90;;;;;;6189282;23;20243;-92
2022/03/18 07:41:52;;;;;;;3.47;2.67;;;7.80;99.90;;;;;;6190701;23;20177;-92
2022/03/18 07:44:23;;;;;;;3.87;2.63;;;7.80;99.90;;;;;;6190072;23;20177;-92
2022/03/18 07:46:54;;;;;;;3.33;2.50;;;7.80;99.90;;;;;;6189951;23;20189;-91
2022/03/18 07:49:25;;;;;;;5.73;2.60;;;7.80;99.90;;;;;;6190391;23;20224;-92
2022/03/18 07:51:55;;;;;;;4.27;2.70;;;7.70;99.90;;;;;;6189844;23;20180;-92
2022/03/18 07:54:28;;;;;;;7.77;3.20;;;7.80;99.90;;;;;;6189906;23;20502;-90
2022/03/18 07:56:59;;;;;;;7.13;3.27;;;7.80;99.90;;;;;;6190291;23;20295;-92
2022/03/18 07:59:30;;;;;;;4.03;2.70;;;7.80;99.90;;;;;;6193223;23;20177;-91
2022/03/18 08:02:01;;;;;;;5.33;2.80;;;7.70;99.90;;;;;;6192510;23;20204;-92
2022/03/18 08:04:32;;;;;;;4.13;2.57;;;7.70;99.90;;;;;;6190238;23;20661;-92
2022/03/18 08:07:03;;;;;;;3.70;2.63;;;7.70;99.90;;;;;;6189278;23;20242;-92
2022/03/18 08:09:35;;;;;;;5.80;2.70;;;7.60;99.90;;;;;;6189974;23;20604;-92
2022/03/18 08:12:07;;;;;;;6.10;2.90;;;7.70;99.90;;;;;;6198223;23;20642;-91
2022/03/18 08:14:38;;;;;;;5.27;2.67;;;7.70;99.90;;;;;;6197117;23;20293;-93
2022/03/18 08:17:10;;;;;;;5.80;2.40;;;7.70;99.90;;;;;;6192348;23;20671;-92
2022/03/18 08:19:41;;;;;;;9.07;2.73;;;7.70;99.90;;;;;;6198246;23;20173;-92
2022/03/18 08:22:11;;;;;;;5.37;2.70;;;7.70;99.90;;;;;;6210784;23;20264;-92
2022/03/18 08:24:44;;;;;;;7.00;2.77;;;7.60;99.90;;;;;;6210047;23;20174;-93
2022/03/18 08:27:16;;;;;;;3.87;2.80;;;7.60;99.90;;;;;;6211071;23;20172;-91
2022/03/18 08:29:49;;;;;;;4.57;3.13;;;7.70;99.90;;;;;;6211616;23;20175;-93
2022/03/18 08:32:20;;;;;;;8.23;3.53;;;7.60;99.90;;;;;;6199156;23;20223;-93
2022/03/18 08:34:52;;;;;;;6.70;3.03;;;7.60;99.90;;;;;;6189909;23;20195;-93
2022/03/18 08:40:10;;;;;;;5.47;2.77;;;7.50;99.90;;;;;;6190409;23;20204;-92
2022/03/18 08:42:41;;;;;;;5.30;2.77;;;7.50;99.90;;;;;;6195926;23;20179;-92
2022/03/18 08:45:13;;;;;;;5.93;2.80;;;7.50;99.90;;;;;;6189731;23;20176;-92
2022/03/18 08:47:45;;;;;;;3.97;2.80;;;7.50;99.90;;;;;;6191128;23;20224;-92
2022/03/18 08:50:17;;;;;;;6.17;2.70;;;7.50;99.90;;;;;;6190072;23;20194;-92
2022/03/18 08:52:49;;;;;;;6.73;2.50;;;7.50;99.90;;;;;;6189353;23;20200;-92
2022/03/18 08:55:23;;;;;;;3.43;2.30;;;7.50;99.90;;;;;;6188537;23;20196;-91
2022/03/18 08:57:54;;;;;;;3.33;2.40;;;7.50;99.90;;;;;;6188041;23;20242;-92
2022/03/18 09:00:24;;;;;;;3.53;2.40;;;7.50;99.90;;;;;;6189682;23;20627;-91
2022/03/18 09:02:56;;;;;;;3.37;2.57;;;7.50;99.90;;;;;;6192674;23;20204;-91
2022/03/18 09:05:27;;;;;;;3.97;2.43;;;7.50;99.90;;;;;;6189150;23;20237;-92
2022/03/18 09:07:57;;;;;;;4.07;2.23;;;7.50;99.90;;;;;;6188753;23;20181;-92
2022/03/18 09:10:31;;;;;;;3.53;1.90;;;7.50;99.90;;;;;;6188708;23;20176;-92
2022/03/18 09:13:02;;;;;;;4.60;2.33;;;7.40;99.90;;;;;;6188711;23;20180;-93
2022/03/18 09:15:34;;;;;;;4.60;2.23;;;7.40;99.90;;;;;;6190147;23;20205;-92
2022/03/18 09:18:05;;;;;;;4.70;2.63;;;7.40;99.90;;;;;;6189490;23;20279;-91
2022/03/18 09:20:37;;;;;;;3.00;2.40;;;7.40;99.90;;;;;;6188976;23;20199;-91
2022/03/18 09:23:08;;;;;;;5.77;2.90;;;7.40;99.90;;;;;;6190467;23;20181;-91
2022/03/18 09:25:42;;;;;;;6.97;3.20;;;7.40;99.90;;;;;;6208666;23;20173;-92
2022/03/18 09:28:13;;;;;;;4.73;3.30;;;7.40;99.90;;;;;;6208185;23;20170;-92
2022/03/18 09:30:54;;;;;;;5.50;3.00;;;7.40;99.90;;;;;;6191553;23;20183;-93
2022/03/18 09:33:25;;;;;;;5.63;2.90;;;7.40;99.90;;;;;;6189599;23;20243;-91
2022/03/18 09:35:56;;;;;;;6.93;3.50;;;7.40;99.90;;;;;;6189617;23;20169;-91
2022/03/18 09:38:27;;;;;;;4.87;3.10;;;7.40;99.90;;;;;;6190967;23;20681;-91
2022/03/18 09:41:00;;;;;;;8.97;3.63;;;7.40;99.90;;;;;;6189719;23;20172;-91
2022/03/18 09:43:36;;;;;;;6.63;3.07;;;7.40;99.90;;;;;;6190788;23;20200;-92
2022/03/18 09:46:08;;;;;;;6.53;3.50;;;7.40;99.90;;;;;;6189567;23;20188;-90
2022/03/18 09:49:00;;;;;;;10.70;3.87;;;7.40;99.90;;;;;;6187775;23;20201;-91
2022/03/18 09:51:32;;;;;;;7.90;3.93;;;7.40;99.90;;;;;;6188198;23;20180;-92
2022/03/18 09:54:20;;;;;;;6.70;3.80;;;7.40;99.90;;;;;;6188670;23;20178;-91
2022/03/18 09:56:55;;;;;;;6.27;3.87;;;7.40;99.90;;;;;;6188552;23;20530;-92
2022/03/18 09:59:27;;;;;;;6.07;3.93;;;7.40;99.90;;;;;;6196498;23;20629;-92
2022/03/18 10:02:29;;;;;;;5.60;3.50;;;7.40;99.90;;;;;;6195767;23;20511;-91
2022/03/18 10:05:02;;;;;;;6.83;3.73;;;7.40;99.90;;;;;;6192268;23;20169;-93
2022/03/18 10:07:34;;;;;;;6.67;3.90;;;7.40;99.90;;;;;;6196850;23;20239;-92
2022/03/18 10:10:11;;;;;;;9.03;3.80;;;7.40;99.90;;;;;;6197182;23;20588;-92
2022/03/18 10:12:45;;;;;;;5.83;3.93;;;7.40;99.90;;;;;;6189967;23;20674;-92
2022/03/18 10:15:17;;;;;;;6.27;3.40;;;7.40;99.90;;;;;;6190849;23;20176;-91
2022/03/18 10:17:49;;;;;;;4.70;3.10;;;7.50;99.90;;;;;;6193316;23;20196;-92
2022/03/18 10:20:32;;;;;;;4.70;3.37;;;7.50;99.90;;;;;;6189558;23;20193;-92
2022/03/18 10:23:20;;;;;;;6.50;3.53;;;7.40;99.90;;;;;;6188809;23;20314;-92
2022/03/18 10:25:53;;;;;;;5.43;3.40;;;7.50;99.90;;;;;;6189278;23;20166;-92
2022/03/18 10:28:43;;;;;;;7.50;3.13;;;7.50;99.90;;;;;;6188085;23;20515;-92
2022/03/18 10:31:18;;;;;;;4.10;2.80;;;7.50;99.90;;;;;;6189717;23;20666;-93
2022/03/18 10:39:33;;;;;;;6.53;2.77;;;7.50;99.90;;;;;;6201687;23;20198;-92
2022/03/18 10:42:07;;;;;;;3.63;2.00;;;7.50;99.90;;;;;;6209936;23;20229;-92
2022/03/18 10:44:48;;;;;;;2.90;1.73;;;7.50;99.90;;;;;;6208874;23;20155;-91
2022/03/18 10:47:31;;;;;;;1.70;1.60;;;7.50;99.90;;;;;;6192822;23;20185;-92
2022/03/18 10:50:24;;;;;;;3.07;1.60;;;7.50;99.90;;;;;;6203612;23;20181;-92
2022/03/18 10:53:08;;;;;;;1.53;1.10;;;7.50;99.90;;;;;;6200577;23;20177;-92
2022/03/18 10:55:40;;;;;;;2.40;1.60;;;7.40;99.90;;;;;;6201470;23;20472;-91
2022/03/18 10:58:12;;;;;;;3.93;1.50;;;7.50;99.90;;;;;;6201258;23;20226;-92
2022/03/18 11:00:48;;;;;;;3.23;1.20;;;7.40;99.90;;;;;;6194266;23;20207;-91
2022/03/18 11:03:20;;;;;;;1.20;1.00;;;7.40;99.90;;;;;;6202739;23;20287;-91
2022/03/18 11:05:52;;;;;;;2.63;1.23;;;7.40;99.90;;;;;;6205991;23;20164;-91
2022/03/18 11:08:27;;;;;;;3.10;1.40;;;7.30;99.90;;;;;;6208164;23;20181;-95
2022/03/18 11:11:10;;;;;;;2.27;0.93;;;7.20;99.90;;;;;;6209912;23;20187;-92
2022/03/18 11:13:52;;;;;;;2.30;1.07;;;7.10;99.90;;;;;;6208340;23;20184;-92
2022/03/18 11:16:28;;;;;;;13.07;3.00;;;7.10;99.90;;;;;;6208803;23;20192;-92
2022/03/18 11:19:04;;;;;;;2.47;0.80;;;7.10;99.90;;;;;;6201739;23;20529;-92
2022/03/18 11:21:39;;;;;;;2.17;1.20;;;7.10;99.90;;;;;;6188438;23;20233;-92
2022/03/18 11:24:12;;;;;;;3.67;1.10;;;7.10;99.90;;;;;;6189711;23;20184;-92
2022/03/18 11:26:47;;;;;;;1.77;1.00;;;7.10;99.90;;;;;;6189128;23;20512;-93
2022/03/18 11:29:23;;;;;;;3.13;1.30;;;7.10;99.90;;;;;;6188631;23;20229;-91
2022/03/18 11:32:24;;;;;;;2.30;0.90;;;7.10;99.90;;;;;;6191143;23;20476;-92
2022/03/18 11:34:59;;;;;;;2.80;1.03;;;7.00;99.90;;;;;;6190991;23;20620;-91
2022/03/18 11:37:31;;;;;;;3.07;1.30;;;7.10;99.90;;;;;;6192805;23;20183;-92
2022/03/18 11:40:30;;;;;;;3.63;0.97;;;7.00;99.90;;;;;;6189173;23;20193;-91
2022/03/18 11:43:31;;;;;;;2.27;1.20;;;7.10;99.90;;;;;;6189720;23;20177;-89
2022/03/18 11:46:25;;;;;;;4.90;1.30;;;7.10;99.90;;;;;;6210293;23;20192;-92
2022/03/18 11:49:00;;;;;;;2.47;1.20;;;7.10;99.90;;;;;;6210739;23;20212;-92
2022/03/18 11:51:32;;;;;;;3.57;1.20;;;7.10;99.90;;;;;;6210741;23;20180;-91
2022/03/18 11:54:05;;;;;;;4.67;1.40;;;7.20;99.90;;;;;;6212241;23;20168;-91
2022/03/18 11:56:48;;;;;;;1.53;1.00;;;7.20;99.90;;;;;;6211998;23;20165;-91
2022/03/18 11:59:46;;;;;;;5.47;1.23;;;7.10;99.90;;;;;;6205356;23;20305;-91
2022/03/18 12:02:16;;;;;;;2.47;1.30;;;7.20;99.90;;;;;;6191815;23;20169;-91
2022/03/18 12:04:52;;;;;;;2.67;1.30;;;7.10;99.90;;;;;;6192056;23;20181;-90
2022/03/18 12:07:24;;;;;;;3.10;1.50;;;7.10;99.90;;;;;;6189714;23;20181;-92
2022/03/18 12:10:00;;;;;;;2.13;1.00;;;7.20;99.90;;;;;;6192701;23;20194;-91
2022/03/18 12:12:34;;;;;;;5.27;1.40;;;7.20;99.90;;;;;;6191588;23;20177;-91
2022/03/18 12:15:08;;;;;;;1.90;1.37;;;7.20;99.90;;;;;;6192285;23;20175;-91
2022/03/18 12:17:43;;;;;;;3.00;1.33;;;7.20;99.90;;;;;;6191159;23;20202;-91
2022/03/18 12:20:39;;;;;;;3.37;1.07;;;7.10;99.90;;;;;;6160682;23;20180;-91
2022/03/18 12:23:11;;;;;;;4.40;0.93;;;7.10;99.90;;;;;;6193134;23;20208;-92
2022/03/18 12:25:42;;;;;;;3.60;0.80;;;7.10;99.90;;;;;;6190474;23;20177;-91
2022/03/18 12:28:13;;;;;;;5.47;1.17;;;7.00;99.90;;;;;;6191750;23;20200;-91
2022/03/18 12:30:46;;;;;;;3.93;1.43;;;7.00;99.90;;;;;;6189864;23;20177;-91
2022/03/18 12:33:18;;;;;;;5.10;1.30;;;6.90;99.90;;;;;;6188353;23;20593;-91
2022/03/18 12:35:51;;;;;;;5.20;1.20;;;6.90;99.90;;;;;;6189513;23;20497;-91
2022/03/18 12:38:24;;;;;;;5.13;1.30;;;6.80;99.90;;;;;;6192609;23;20203;-92
2022/03/18 12:40:57;;;;;;;5.30;1.30;;;6.80;99.90;;;;;;6193083;23;20461;-91
2022/03/18 12:43:31;;;;;;;4.53;0.97;;;6.70;99.90;;;;;;6190382;23;20173;-91
2022/03/18 12:46:02;;;;;;;2.87;1.00;;;6.60;99.90;;;;;;6189788;23;20185;-91
2022/03/18 12:48:33;;;;;;;3.83;1.10;;;6.70;99.90;;;;;;6193076;23;20189;-91
2022/03/18 12:51:07;;;;;;;3.13;1.17;;;6.70;99.90;;;;;;6191467;23;20232;-92
2022/03/18 12:53:38;;;;;;;3.53;0.97;;;6.60;99.90;;;;;;6203126;23;20177;-92
2022/03/18 12:56:09;;;;;;;3.33;1.27;;;6.70;99.90;;;;;;6211821;23;20169;-91
2022/03/18 12:58:41;;;;;;;5.53;1.30;;;6.60;99.90;;;;;;6208318;23;20220;-92
2022/03/18 13:01:32;;;;;;;5.67;1.57;;;6.60;99.90;;;;;;6190595;23;20208;-91
2022/03/18 13:04:05;;;;;;;3.23;1.13;;;6.60;99.90;;;;;;6189954;23;20256;-90
2022/03/18 13:06:39;;;;;;;2.53;1.07;;;6.50;99.90;;;;;;6190130;23;20217;-91
2022/03/18 13:09:13;;;;;;;4.83;1.07;;;6.50;99.90;;;;;;6187452;23;20623;-91
2022/03/18 13:11:45;;;;;;;7.17;1.20;;;6.50;99.90;;;;;;6190224;23;20177;-90
2022/03/18 13:14:34;;;;;;;3.50;1.20;;;6.50;99.90;;;;;;6189674;23;20169;-90
2022/03/18 13:17:06;;;;;;;4.40;1.20;;;6.40;99.90;;;;;;6189009;23;20577;-92
2022/03/18 13:19:46;;;;;;;2.87;1.30;;;6.50;99.90;;;;;;6190097;23;20236;-92
2022/03/18 13:22:23;;;;;;;6.47;1.20;;;6.50;99.90;;;;;;6188509;23;20196;-92
2022/03/18 13:24:56;;;;;;;3.07;1.10;;;6.50;99.90;;;;;;6189574;23;20212;-91
2022/03/18 13:27:27;;;;;;;5.47;1.03;;;6.50;99.90;;;;;;6196147;23;20169;-90
2022/03/18 13:32:53;;;;;;;4.13;1.37;;;6.50;99.90;;;;;;6189839;23;20197;-91
2022/03/18 13:35:27;;;;;;;3.47;0.90;;;6.50;99.90;;;;;;6192800;23;20260;-91
2022/03/18 13:38:11;;;;;;;2.87;1.00;;;6.50;99.90;;;;;;6188625;23;20220;-92
2022/03/18 13:40:54;;;;;;;4.93;1.70;;;6.50;99.90;;;;;;6190040;23;20197;-92
2022/03/18 13:43:27;;;;;;;5.30;1.10;;;6.50;99.90;;;;;;6189317;23;20183;-92
2022/03/18 13:46:12;;;;;;;3.53;1.00;;;6.50;99.90;;;;;;6189842;23;20238;-92
2022/03/18 13:48:44;;;;;;;4.13;1.10;;;6.60;99.90;;;;;;6187658;23;20272;-93
2022/03/18 13:51:33;;;;;;;3.17;1.00;;;6.60;99.90;;;;;;6189604;23;20461;-93
2022/03/18 13:54:10;;;;;;;4.70;1.13;;;6.60;99.90;;;;;;6189230;23;20196;-93
2022/03/18 13:56:45;;;;;;;5.63;1.53;;;6.60;99.90;;;;;;6189867;23;20184;-91
2022/03/18 13:59:17;;;;;;;3.47;1.20;;;6.60;99.90;;;;;;6189972;23;20321;-91
2022/03/18 14:02:00;;;;;;;4.80;1.10;;;6.50;99.90;;;;;;6190112;23;20181;-93
2022/03/18 14:04:40;;;;;;;2.57;1.00;;;6.50;99.90;;;;;;6190175;23;20173;-91
2022/03/18 14:07:13;;;;;;;3.33;1.30;;;6.60;99.90;;;;;;6189253;23;20617;-92
2022/03/18 14:10:02;;;;;;;5.10;0.90;;;6.60;99.90;;;;;;6194369;23;20200;-91
2022/03/18 14:12:33;;;;;;;4.73;1.20;;;6.60;99.90;;;;;;6192109;23;20165;-92
2022/03/18 14:15:13;;;;;;;3.37;1.20;;;6.70;99.90;;;;;;6202236;23;20269;-91
2022/03/18 14:18:02;;;;;;;3.60;1.37;;;6.70;99.90;;;;;;6208693;23;20212;-92
2022/03/18 14:20:36;;;;;;;2.73;0.93;;;6.70;99.90;;;;;;6211616;23;20212;-92
2022/03/18 14:23:22;;;;;;;4.40;1.83;;;6.70;99.90;;;;;;6208351;23;20162;-92
2022/03/18 14:25:56;;;;;;;5.00;1.13;;;6.70;99.90;;;;;;6211709;23;20165;-90
2022/03/18 14:28:29;;;;;;;2.93;1.13;;;6.80;99.90;;;;;;6211135;23;20172;-92
2022/03/18 14:31:01;;;;;;;3.10;1.17;;;6.70;99.90;;;;;;6211621;23;20173;-90
2022/03/18 14:33:35;;;;;;;3.17;1.33;;;6.80;99.90;;;;;;6211625;23;20163;-92
2022/03/18 14:36:06;;;;;;;3.57;1.27;;;6.80;99.90;;;;;;6206803;23;20180;-91
2022/03/18 14:38:46;;;;;;;4.10;1.00;;;6.80;99.90;;;;;;6203826;23;20180;-92
2022/03/18 14:41:21;;;;;;;3.73;1.10;;;6.80;99.90;;;;;;6205069;23;20218;-91